sensor_id;sensor_type;location;lat;lon;timestamp;P1;durP1;ratioP1;P2;durP2;ratioP2
67456;SDS011;54319;52.038;4.640;2023-04-16T00:00:53;12.23;;;3.33;;
67456;SDS011;54319;52.038;4.640;2023-04-16T00:03:19;7.78;;;3.50;;
67456;SDS011;54319;52.038;4.640;2023-04-16T00:05:46;9.32;;;2.92;;
67456;SDS011;54319;52.038;4.640;2023-04-16T00:08:12;10.48;;;3.45;;
67456;SDS011;54319;52.038;4.640;2023-04-16T00:10:41;8.45;;;3.22;;
67456;SDS011;54319;52.038;4.640;2023-04-16T00:13:07;10.23;;;3.10;;
67456;SDS011;54319;52.038;4.640;2023-04-16T00:15:35;9.05;;;3.00;;
67456;SDS011;54319;52.038;4.640;2023-04-16T00:18:02;7.82;;;3.08;;
67456;SDS011;54319;52.038;4.640;2023-04-16T00:20:29;9.07;;;3.00;;
67456;SDS011;54319;52.038;4.640;2023-04-16T00:22:55;12.27;;;2.90;;
67456;SDS011;54319;52.038;4.640;2023-04-16T00:25:22;7.77;;;2.80;;
67456;SDS011;54319;52.038;4.640;2023-04-16T00:27:48;8.27;;;2.65;;
67456;SDS011;54319;52.038;4.640;2023-04-16T00:30:15;8.38;;;2.90;;
67456;SDS011;54319;52.038;4.640;2023-04-16T00:32:43;9.68;;;2.85;;
67456;SDS011;54319;52.038;4.640;2023-04-16T00:35:10;5.75;;;2.63;;
67456;SDS011;54319;52.038;4.640;2023-04-16T00:37:36;8.70;;;3.20;;
67456;SDS011;54319;52.038;4.640;2023-04-16T00:40:03;12.23;;;3.03;;
67456;SDS011;54319;52.038;4.640;2023-04-16T00:42:30;6.50;;;2.47;;
67456;SDS011;54319;52.038;4.640;2023-04-16T00:44:57;9.27;;;2.83;;
67456;SDS011;54319;52.038;4.640;2023-04-16T00:47:24;7.43;;;2.88;;
67456;SDS011;54319;52.038;4.640;2023-04-16T00:49:53;8.80;;;2.72;;
67456;SDS011;54319;52.038;4.640;2023-04-16T00:52:20;10.63;;;2.80;;
67456;SDS011;54319;52.038;4.640;2023-04-16T00:54:46;9.95;;;2.80;;
67456;SDS011;54319;52.038;4.640;2023-04-16T00:57:13;8.07;;;3.33;;
67456;SDS011;54319;52.038;4.640;2023-04-16T00:59:40;5.60;;;2.63;;
67456;SDS011;54319;52.038;4.640;2023-04-16T01:02:07;8.30;;;2.83;;
67456;SDS011;54319;52.038;4.640;2023-04-16T01:04:34;6.43;;;2.80;;
67456;SDS011;54319;52.038;4.640;2023-04-16T01:07:02;13.40;;;3.42;;
67456;SDS011;54319;52.038;4.640;2023-04-16T01:09:28;6.55;;;2.70;;
67456;SDS011;54319;52.038;4.640;2023-04-16T01:11:56;9.10;;;3.10;;
67456;SDS011;54319;52.038;4.640;2023-04-16T01:16:49;4.35;;;2.30;;
67456;SDS011;54319;52.038;4.640;2023-04-16T01:19:16;8.13;;;2.50;;
67456;SDS011;54319;52.038;4.640;2023-04-16T01:21:44;6.30;;;2.70;;
67456;SDS011;54319;52.038;4.640;2023-04-16T01:24:10;6.40;;;2.75;;
67456;SDS011;54319;52.038;4.640;2023-04-16T01:26:37;9.70;;;2.97;;
67456;SDS011;54319;52.038;4.640;2023-04-16T01:29:04;7.18;;;2.95;;
67456;SDS011;54319;52.038;4.640;2023-04-16T01:31:30;10.13;;;3.30;;
67456;SDS011;54319;52.038;4.640;2023-04-16T01:33:57;15.45;;;4.00;;
67456;SDS011;54319;52.038;4.640;2023-04-16T01:36:23;13.07;;;4.10;;
67456;SDS011;54319;52.038;4.640;2023-04-16T01:38:52;12.65;;;4.15;;
67456;SDS011;54319;52.038;4.640;2023-04-16T01:41:18;13.73;;;3.72;;
67456;SDS011;54319;52.038;4.640;2023-04-16T01:43:45;11.82;;;3.78;;
67456;SDS011;54319;52.038;4.640;2023-04-16T01:46:13;8.20;;;3.63;;
67456;SDS011;54319;52.038;4.640;2023-04-16T01:48:43;8.63;;;3.50;;
67456;SDS011;54319;52.038;4.640;2023-04-16T01:51:10;8.73;;;4.05;;
67456;SDS011;54319;52.038;4.640;2023-04-16T01:53:36;7.93;;;3.80;;
67456;SDS011;54319;52.038;4.640;2023-04-16T01:56:05;12.32;;;4.53;;
67456;SDS011;54319;52.038;4.640;2023-04-16T01:58:33;10.40;;;4.00;;
67456;SDS011;54319;52.038;4.640;2023-04-16T02:00:59;10.43;;;4.40;;
67456;SDS011;54319;52.038;4.640;2023-04-16T02:03:26;14.77;;;4.00;;
67456;SDS011;54319;52.038;4.640;2023-04-16T02:05:53;9.40;;;3.93;;
67456;SDS011;54319;52.038;4.640;2023-04-16T02:08:20;14.13;;;3.90;;
67456;SDS011;54319;52.038;4.640;2023-04-16T02:10:46;12.02;;;4.05;;
67456;SDS011;54319;52.038;4.640;2023-04-16T02:13:16;12.32;;;3.55;;
67456;SDS011;54319;52.038;4.640;2023-04-16T02:15:46;10.88;;;3.78;;
67456;SDS011;54319;52.038;4.640;2023-04-16T02:18:13;16.85;;;3.80;;
67456;SDS011;54319;52.038;4.640;2023-04-16T02:20:40;10.23;;;3.80;;
67456;SDS011;54319;52.038;4.640;2023-04-16T02:23:07;13.93;;;3.85;;
67456;SDS011;54319;52.038;4.640;2023-04-16T02:25:39;14.48;;;4.30;;
67456;SDS011;54319;52.038;4.640;2023-04-16T02:28:06;11.07;;;3.70;;
67456;SDS011;54319;52.038;4.640;2023-04-16T02:30:34;12.98;;;4.10;;
67456;SDS011;54319;52.038;4.640;2023-04-16T02:33:01;13.98;;;3.80;;
67456;SDS011;54319;52.038;4.640;2023-04-16T02:35:29;17.33;;;3.50;;
67456;SDS011;54319;52.038;4.640;2023-04-16T02:37:56;13.07;;;4.05;;
67456;SDS011;54319;52.038;4.640;2023-04-16T02:40:23;8.35;;;3.45;;
67456;SDS011;54319;52.038;4.640;2023-04-16T02:42:50;7.88;;;3.60;;
67456;SDS011;54319;52.038;4.640;2023-04-16T02:45:16;7.97;;;4.18;;
67456;SDS011;54319;52.038;4.640;2023-04-16T02:47:45;11.77;;;3.60;;
67456;SDS011;54319;52.038;4.640;2023-04-16T02:50:12;14.38;;;4.00;;
67456;SDS011;54319;52.038;4.640;2023-04-16T02:52:39;7.87;;;4.00;;
67456;SDS011;54319;52.038;4.640;2023-04-16T02:55:06;16.17;;;4.18;;
67456;SDS011;54319;52.038;4.640;2023-04-16T02:59:59;14.30;;;4.20;;
67456;SDS011;54319;52.038;4.640;2023-04-16T03:02:28;12.18;;;4.30;;
67456;SDS011;54319;52.038;4.640;2023-04-16T03:04:56;8.52;;;3.88;;
67456;SDS011;54319;52.038;4.640;2023-04-16T03:07:23;18.20;;;5.28;;
67456;SDS011;54319;52.038;4.640;2023-04-16T03:09:49;14.48;;;4.28;;
67456;SDS011;54319;52.038;4.640;2023-04-16T03:12:16;11.13;;;4.37;;
67456;SDS011;54319;52.038;4.640;2023-04-16T03:14:43;11.82;;;4.38;;
67456;SDS011;54319;52.038;4.640;2023-04-16T03:17:10;11.00;;;4.13;;
67456;SDS011;54319;52.038;4.640;2023-04-16T03:19:36;11.25;;;4.32;;
67456;SDS011;54319;52.038;4.640;2023-04-16T03:22:04;12.38;;;4.47;;
67456;SDS011;54319;52.038;4.640;2023-04-16T03:24:31;13.68;;;4.63;;
67456;SDS011;54319;52.038;4.640;2023-04-16T03:26:57;16.27;;;3.65;;
67456;SDS011;54319;52.038;4.640;2023-04-16T03:29:26;13.73;;;3.80;;
67456;SDS011;54319;52.038;4.640;2023-04-16T03:31:53;21.35;;;4.25;;
67456;SDS011;54319;52.038;4.640;2023-04-16T03:34:19;17.58;;;4.05;;
67456;SDS011;54319;52.038;4.640;2023-04-16T03:36:46;13.77;;;3.78;;
67456;SDS011;54319;52.038;4.640;2023-04-16T03:39:14;13.50;;;4.22;;
67456;SDS011;54319;52.038;4.640;2023-04-16T03:41:42;10.95;;;3.83;;
67456;SDS011;54319;52.038;4.640;2023-04-16T03:46:35;11.98;;;3.50;;
67456;SDS011;54319;52.038;4.640;2023-04-16T03:49:01;13.23;;;3.30;;
67456;SDS011;54319;52.038;4.640;2023-04-16T03:51:28;15.50;;;3.83;;
67456;SDS011;54319;52.038;4.640;2023-04-16T03:53:54;9.27;;;3.35;;
67456;SDS011;54319;52.038;4.640;2023-04-16T03:56:22;7.88;;;3.28;;
67456;SDS011;54319;52.038;4.640;2023-04-16T03:58:49;15.07;;;3.85;;
67456;SDS011;54319;52.038;4.640;2023-04-16T04:01:16;8.55;;;3.58;;
67456;SDS011;54319;52.038;4.640;2023-04-16T04:03:42;5.80;;;3.17;;
67456;SDS011;54319;52.038;4.640;2023-04-16T04:06:09;9.48;;;3.50;;
67456;SDS011;54319;52.038;4.640;2023-04-16T04:08:35;12.32;;;3.80;;
67456;SDS011;54319;52.038;4.640;2023-04-16T04:11:02;8.82;;;3.13;;
67456;SDS011;54319;52.038;4.640;2023-04-16T04:13:30;12.47;;;3.27;;
67456;SDS011;54319;52.038;4.640;2023-04-16T04:15:57;12.52;;;3.28;;
67456;SDS011;54319;52.038;4.640;2023-04-16T04:18:23;7.10;;;3.22;;
67456;SDS011;54319;52.038;4.640;2023-04-16T04:20:50;12.10;;;3.60;;
67456;SDS011;54319;52.038;4.640;2023-04-16T04:23:17;13.50;;;3.50;;
67456;SDS011;54319;52.038;4.640;2023-04-16T04:25:43;8.68;;;2.97;;
67456;SDS011;54319;52.038;4.640;2023-04-16T04:28:10;8.70;;;2.90;;
67456;SDS011;54319;52.038;4.640;2023-04-16T04:30:38;10.73;;;3.00;;
67456;SDS011;54319;52.038;4.640;2023-04-16T04:33:05;9.60;;;3.45;;
67456;SDS011;54319;52.038;4.640;2023-04-16T04:37:59;9.80;;;2.33;;
67456;SDS011;54319;52.038;4.640;2023-04-16T04:40:26;10.15;;;2.78;;
67456;SDS011;54319;52.038;4.640;2023-04-16T04:42:53;5.20;;;2.75;;
67456;SDS011;54319;52.038;4.640;2023-04-16T04:45:19;4.50;;;2.53;;
67456;SDS011;54319;52.038;4.640;2023-04-16T04:47:50;7.20;;;2.72;;
67456;SDS011;54319;52.038;4.640;2023-04-16T04:50:17;12.82;;;3.00;;
67456;SDS011;54319;52.038;4.640;2023-04-16T04:52:44;11.13;;;3.63;;
67456;SDS011;54319;52.038;4.640;2023-04-16T04:55:10;8.05;;;3.13;;
67456;SDS011;54319;52.038;4.640;2023-04-16T04:57:39;6.20;;;2.88;;
67456;SDS011;54319;52.038;4.640;2023-04-16T05:00:06;12.60;;;3.08;;
67456;SDS011;54319;52.038;4.640;2023-04-16T05:02:33;7.95;;;3.20;;
67456;SDS011;54319;52.038;4.640;2023-04-16T05:05:01;11.57;;;3.70;;
67456;SDS011;54319;52.038;4.640;2023-04-16T05:07:28;10.52;;;3.90;;
67456;SDS011;54319;52.038;4.640;2023-04-16T05:09:54;8.57;;;3.70;;
67456;SDS011;54319;52.038;4.640;2023-04-16T05:12:21;7.07;;;3.90;;
67456;SDS011;54319;52.038;4.640;2023-04-16T05:14:48;8.35;;;3.30;;
67456;SDS011;54319;52.038;4.640;2023-04-16T05:17:14;7.80;;;4.03;;
67456;SDS011;54319;52.038;4.640;2023-04-16T05:19:41;8.00;;;4.10;;
67456;SDS011;54319;52.038;4.640;2023-04-16T05:22:10;7.93;;;4.20;;
67456;SDS011;54319;52.038;4.640;2023-04-16T05:24:37;10.30;;;3.83;;
67456;SDS011;54319;52.038;4.640;2023-04-16T05:27:03;9.27;;;4.05;;
67456;SDS011;54319;52.038;4.640;2023-04-16T05:29:30;9.87;;;4.13;;
67456;SDS011;54319;52.038;4.640;2023-04-16T05:31:57;13.52;;;4.22;;
67456;SDS011;54319;52.038;4.640;2023-04-16T05:34:23;9.90;;;4.57;;
67456;SDS011;54319;52.038;4.640;2023-04-16T05:36:50;11.53;;;4.43;;
67456;SDS011;54319;52.038;4.640;2023-04-16T05:39:18;10.23;;;4.82;;
67456;SDS011;54319;52.038;4.640;2023-04-16T05:41:45;10.13;;;4.32;;
67456;SDS011;54319;52.038;4.640;2023-04-16T05:44:11;9.30;;;4.68;;
67456;SDS011;54319;52.038;4.640;2023-04-16T05:46:39;7.45;;;4.60;;
67456;SDS011;54319;52.038;4.640;2023-04-16T05:49:05;10.70;;;5.47;;
67456;SDS011;54319;52.038;4.640;2023-04-16T05:51:32;12.38;;;5.28;;
67456;SDS011;54319;52.038;4.640;2023-04-16T05:53:59;17.27;;;5.93;;
67456;SDS011;54319;52.038;4.640;2023-04-16T05:56:27;13.68;;;6.38;;
67456;SDS011;54319;52.038;4.640;2023-04-16T05:58:53;15.38;;;6.40;;
67456;SDS011;54319;52.038;4.640;2023-04-16T06:01:20;15.05;;;6.40;;
67456;SDS011;54319;52.038;4.640;2023-04-16T06:03:47;13.18;;;6.70;;
67456;SDS011;54319;52.038;4.640;2023-04-16T06:06:15;14.07;;;6.77;;
67456;SDS011;54319;52.038;4.640;2023-04-16T06:11:08;13.00;;;5.95;;
67456;SDS011;54319;52.038;4.640;2023-04-16T06:13:37;16.70;;;6.70;;
67456;SDS011;54319;52.038;4.640;2023-04-16T06:16:04;16.98;;;6.55;;
67456;SDS011;54319;52.038;4.640;2023-04-16T06:18:31;17.25;;;5.97;;
67456;SDS011;54319;52.038;4.640;2023-04-16T06:20:58;16.35;;;6.47;;
67456;SDS011;54319;52.038;4.640;2023-04-16T06:23:25;14.20;;;6.23;;
67456;SDS011;54319;52.038;4.640;2023-04-16T06:25:51;13.40;;;5.30;;
67456;SDS011;54319;52.038;4.640;2023-04-16T06:28:18;15.23;;;6.40;;
67456;SDS011;54319;52.038;4.640;2023-04-16T06:30:46;11.43;;;5.20;;
67456;SDS011;54319;52.038;4.640;2023-04-16T06:33:13;14.10;;;5.50;;
67456;SDS011;54319;52.038;4.640;2023-04-16T06:35:40;10.50;;;5.90;;
67456;SDS011;54319;52.038;4.640;2023-04-16T06:38:06;17.00;;;5.88;;
67456;SDS011;54319;52.038;4.640;2023-04-16T06:40:33;13.75;;;5.82;;
67456;SDS011;54319;52.038;4.640;2023-04-16T06:43:01;21.42;;;6.00;;
67456;SDS011;54319;52.038;4.640;2023-04-16T06:45:27;12.30;;;5.90;;
67456;SDS011;54319;52.038;4.640;2023-04-16T06:47:56;16.25;;;6.43;;
67456;SDS011;54319;52.038;4.640;2023-04-16T06:50:23;14.65;;;6.22;;
67456;SDS011;54319;52.038;4.640;2023-04-16T06:52:50;17.52;;;6.38;;
67456;SDS011;54319;52.038;4.640;2023-04-16T06:55:17;12.65;;;6.40;;
67456;SDS011;54319;52.038;4.640;2023-04-16T06:57:44;12.43;;;6.77;;
67456;SDS011;54319;52.038;4.640;2023-04-16T07:00:11;16.77;;;5.65;;
67456;SDS011;54319;52.038;4.640;2023-04-16T07:02:38;13.30;;;6.32;;
67456;SDS011;54319;52.038;4.640;2023-04-16T07:05:07;14.17;;;5.70;;
67456;SDS011;54319;52.038;4.640;2023-04-16T07:07:34;12.10;;;5.72;;
67456;SDS011;54319;52.038;4.640;2023-04-16T07:10:01;16.00;;;6.28;;
67456;SDS011;54319;52.038;4.640;2023-04-16T07:12:29;20.20;;;6.03;;
67456;SDS011;54319;52.038;4.640;2023-04-16T07:17:24;11.25;;;5.88;;
67456;SDS011;54319;52.038;4.640;2023-04-16T07:19:50;11.23;;;5.85;;
67456;SDS011;54319;52.038;4.640;2023-04-16T07:22:19;10.90;;;5.28;;
67456;SDS011;54319;52.038;4.640;2023-04-16T07:24:46;12.40;;;5.57;;
67456;SDS011;54319;52.038;4.640;2023-04-16T07:27:12;11.25;;;5.57;;
67456;SDS011;54319;52.038;4.640;2023-04-16T07:29:39;9.60;;;5.57;;
67456;SDS011;54319;52.038;4.640;2023-04-16T07:32:06;16.27;;;6.80;;
67456;SDS011;54319;52.038;4.640;2023-04-16T07:34:33;14.77;;;5.90;;
67456;SDS011;54319;52.038;4.640;2023-04-16T07:36:59;10.30;;;5.13;;
67456;SDS011;54319;52.038;4.640;2023-04-16T07:39:27;15.20;;;5.70;;
67456;SDS011;54319;52.038;4.640;2023-04-16T07:41:54;13.43;;;6.13;;
67456;SDS011;54319;52.038;4.640;2023-04-16T07:44:21;14.27;;;5.95;;
67456;SDS011;54319;52.038;4.640;2023-04-16T07:46:47;12.43;;;6.05;;
67456;SDS011;54319;52.038;4.640;2023-04-16T07:49:14;13.05;;;7.20;;
67456;SDS011;54319;52.038;4.640;2023-04-16T07:51:40;14.68;;;6.78;;
67456;SDS011;54319;52.038;4.640;2023-04-16T07:54:07;12.30;;;6.77;;
67456;SDS011;54319;52.038;4.640;2023-04-16T07:56:36;10.25;;;6.32;;
67456;SDS011;54319;52.038;4.640;2023-04-16T07:59:03;21.67;;;6.90;;
67456;SDS011;54319;52.038;4.640;2023-04-16T08:01:29;13.77;;;7.13;;
67456;SDS011;54319;52.038;4.640;2023-04-16T08:03:57;13.57;;;7.03;;
67456;SDS011;54319;52.038;4.640;2023-04-16T08:06:24;10.77;;;6.88;;
67456;SDS011;54319;52.038;4.640;2023-04-16T08:08:51;14.50;;;7.13;;
67456;SDS011;54319;52.038;4.640;2023-04-16T08:11:17;14.02;;;7.57;;
67456;SDS011;54319;52.038;4.640;2023-04-16T08:13:45;15.47;;;7.87;;
67456;SDS011;54319;52.038;4.640;2023-04-16T08:16:12;17.67;;;8.55;;
67456;SDS011;54319;52.038;4.640;2023-04-16T08:18:39;14.65;;;8.38;;
67456;SDS011;54319;52.038;4.640;2023-04-16T08:21:05;18.83;;;8.82;;
67456;SDS011;54319;52.038;4.640;2023-04-16T08:23:32;13.27;;;8.85;;
67456;SDS011;54319;52.038;4.640;2023-04-16T08:25:59;14.85;;;8.07;;
67456;SDS011;54319;52.038;4.640;2023-04-16T08:28:26;16.98;;;8.00;;
67456;SDS011;54319;52.038;4.640;2023-04-16T08:30:54;12.75;;;7.43;;
67456;SDS011;54319;52.038;4.640;2023-04-16T08:33:20;15.98;;;8.02;;
67456;SDS011;54319;52.038;4.640;2023-04-16T08:35:47;14.20;;;8.07;;
67456;SDS011;54319;52.038;4.640;2023-04-16T08:38:14;12.77;;;7.60;;
67456;SDS011;54319;52.038;4.640;2023-04-16T08:40:40;14.52;;;7.93;;
67456;SDS011;54319;52.038;4.640;2023-04-16T08:43:08;14.93;;;8.18;;
67456;SDS011;54319;52.038;4.640;2023-04-16T08:45:37;15.02;;;8.63;;
67456;SDS011;54319;52.038;4.640;2023-04-16T08:48:07;16.27;;;9.05;;
67456;SDS011;54319;52.038;4.640;2023-04-16T08:50:36;20.08;;;9.55;;
67456;SDS011;54319;52.038;4.640;2023-04-16T08:53:06;14.10;;;8.63;;
67456;SDS011;54319;52.038;4.640;2023-04-16T08:55:39;14.48;;;8.30;;
67456;SDS011;54319;52.038;4.640;2023-04-16T08:58:11;20.80;;;9.02;;
67456;SDS011;54319;52.038;4.640;2023-04-16T09:00:39;17.50;;;10.05;;
67456;SDS011;54319;52.038;4.640;2023-04-16T09:03:11;16.30;;;8.85;;
67456;SDS011;54319;52.038;4.640;2023-04-16T09:05:38;17.42;;;10.05;;
67456;SDS011;54319;52.038;4.640;2023-04-16T09:08:05;17.75;;;8.90;;
67456;SDS011;54319;52.038;4.640;2023-04-16T09:10:32;14.40;;;8.90;;
67456;SDS011;54319;52.038;4.640;2023-04-16T09:12:59;16.48;;;9.13;;
67456;SDS011;54319;52.038;4.640;2023-04-16T09:15:26;15.48;;;9.38;;
67456;SDS011;54319;52.038;4.640;2023-04-16T09:17:53;17.38;;;9.45;;
67456;SDS011;54319;52.038;4.640;2023-04-16T09:20:22;15.38;;;9.77;;
67456;SDS011;54319;52.038;4.640;2023-04-16T09:22:48;14.80;;;8.52;;
67456;SDS011;54319;52.038;4.640;2023-04-16T09:25:15;15.13;;;9.43;;
67456;SDS011;54319;52.038;4.640;2023-04-16T09:27:42;18.15;;;9.20;;
67456;SDS011;54319;52.038;4.640;2023-04-16T09:30:18;11.70;;;7.80;;
67456;SDS011;54319;52.038;4.640;2023-04-16T09:32:47;13.57;;;8.93;;
67456;SDS011;54319;52.038;4.640;2023-04-16T09:35:13;16.33;;;9.13;;
67456;SDS011;54319;52.038;4.640;2023-04-16T09:37:42;13.75;;;9.55;;
67456;SDS011;54319;52.038;4.640;2023-04-16T09:40:08;12.65;;;8.80;;
67456;SDS011;54319;52.038;4.640;2023-04-16T09:42:37;18.55;;;9.35;;
67456;SDS011;54319;52.038;4.640;2023-04-16T09:47:37;15.05;;;9.15;;
67456;SDS011;54319;52.038;4.640;2023-04-16T09:50:05;15.95;;;8.15;;
67456;SDS011;54319;52.038;4.640;2023-04-16T09:52:34;15.13;;;8.02;;
67456;SDS011;54319;52.038;4.640;2023-04-16T09:55:03;16.08;;;8.80;;
67456;SDS011;54319;52.038;4.640;2023-04-16T09:57:31;17.48;;;8.90;;
67456;SDS011;54319;52.038;4.640;2023-04-16T10:00:00;19.60;;;10.05;;
67456;SDS011;54319;52.038;4.640;2023-04-16T10:02:28;16.10;;;9.63;;
67456;SDS011;54319;52.038;4.640;2023-04-16T10:04:55;16.35;;;9.18;;
67456;SDS011;54319;52.038;4.640;2023-04-16T10:07:22;16.80;;;9.98;;
67456;SDS011;54319;52.038;4.640;2023-04-16T10:09:53;17.25;;;9.90;;
67456;SDS011;54319;52.038;4.640;2023-04-16T10:12:22;20.38;;;10.95;;
67456;SDS011;54319;52.038;4.640;2023-04-16T10:14:49;19.45;;;11.07;;
67456;SDS011;54319;52.038;4.640;2023-04-16T10:17:16;26.27;;;12.02;;
67456;SDS011;54319;52.038;4.640;2023-04-16T10:19:44;21.73;;;11.50;;
67456;SDS011;54319;52.038;4.640;2023-04-16T10:22:11;23.98;;;10.18;;
67456;SDS011;54319;52.038;4.640;2023-04-16T10:24:38;23.42;;;10.85;;
67456;SDS011;54319;52.038;4.640;2023-04-16T10:27:06;15.70;;;9.85;;
67456;SDS011;54319;52.038;4.640;2023-04-16T10:29:34;24.92;;;9.93;;
67456;SDS011;54319;52.038;4.640;2023-04-16T10:32:02;15.65;;;8.43;;
67456;SDS011;54319;52.038;4.640;2023-04-16T10:34:32;22.38;;;8.75;;
67456;SDS011;54319;52.038;4.640;2023-04-16T10:36:58;17.50;;;9.43;;
67456;SDS011;54319;52.038;4.640;2023-04-16T10:39:26;19.67;;;9.45;;
67456;SDS011;54319;52.038;4.640;2023-04-16T10:42:05;21.65;;;10.27;;
67456;SDS011;54319;52.038;4.640;2023-04-16T10:44:33;18.30;;;9.73;;
67456;SDS011;54319;52.038;4.640;2023-04-16T10:47:01;18.95;;;9.88;;
67456;SDS011;54319;52.038;4.640;2023-04-16T10:49:27;24.90;;;10.43;;
67456;SDS011;54319;52.038;4.640;2023-04-16T10:51:55;15.65;;;9.80;;
67456;SDS011;54319;52.038;4.640;2023-04-16T10:54:23;17.42;;;10.60;;
67456;SDS011;54319;52.038;4.640;2023-04-16T10:56:51;19.73;;;9.38;;
67456;SDS011;54319;52.038;4.640;2023-04-16T10:59:19;19.33;;;9.73;;
67456;SDS011;54319;52.038;4.640;2023-04-16T11:01:49;16.83;;;9.65;;
67456;SDS011;54319;52.038;4.640;2023-04-16T11:04:27;19.27;;;10.00;;
67456;SDS011;54319;52.038;4.640;2023-04-16T11:07:02;19.65;;;10.02;;
67456;SDS011;54319;52.038;4.640;2023-04-16T11:09:43;13.82;;;7.50;;
67456;SDS011;54319;52.038;4.640;2023-04-16T11:12:12;12.85;;;7.78;;
67456;SDS011;54319;52.038;4.640;2023-04-16T11:14:40;11.85;;;6.97;;
67456;SDS011;54319;52.038;4.640;2023-04-16T11:17:09;14.18;;;6.47;;
67456;SDS011;54319;52.038;4.640;2023-04-16T11:19:36;14.98;;;6.57;;
67456;SDS011;54319;52.038;4.640;2023-04-16T11:22:03;16.38;;;8.23;;
67456;SDS011;54319;52.038;4.640;2023-04-16T11:24:30;18.25;;;9.02;;
67456;SDS011;54319;52.038;4.640;2023-04-16T11:26:57;15.57;;;8.95;;
67456;SDS011;54319;52.038;4.640;2023-04-16T11:29:24;15.02;;;8.95;;
67456;SDS011;54319;52.038;4.640;2023-04-16T11:31:51;17.87;;;9.33;;
67456;SDS011;54319;52.038;4.640;2023-04-16T11:34:19;22.15;;;9.20;;
67456;SDS011;54319;52.038;4.640;2023-04-16T11:36:46;19.83;;;8.50;;
67456;SDS011;54319;52.038;4.640;2023-04-16T11:39:14;14.55;;;7.50;;
67456;SDS011;54319;52.038;4.640;2023-04-16T11:41:41;17.95;;;7.78;;
67456;SDS011;54319;52.038;4.640;2023-04-16T11:44:18;17.50;;;7.00;;
67456;SDS011;54319;52.038;4.640;2023-04-16T11:46:45;14.48;;;8.95;;
67456;SDS011;54319;52.038;4.640;2023-04-16T11:49:12;17.67;;;9.95;;
67456;SDS011;54319;52.038;4.640;2023-04-16T11:51:41;19.65;;;10.57;;
67456;SDS011;54319;52.038;4.640;2023-04-16T11:54:09;16.33;;;8.77;;
67456;SDS011;54319;52.038;4.640;2023-04-16T11:56:44;16.35;;;8.80;;
67456;SDS011;54319;52.038;4.640;2023-04-16T11:59:13;15.77;;;9.55;;
67456;SDS011;54319;52.038;4.640;2023-04-16T12:01:41;15.50;;;8.60;;
67456;SDS011;54319;52.038;4.640;2023-04-16T12:04:10;20.65;;;9.77;;
67456;SDS011;54319;52.038;4.640;2023-04-16T12:06:38;21.55;;;9.27;;
67456;SDS011;54319;52.038;4.640;2023-04-16T12:09:25;17.55;;;8.50;;
67456;SDS011;54319;52.038;4.640;2023-04-16T12:14:19;16.92;;;8.13;;
67456;SDS011;54319;52.038;4.640;2023-04-16T12:16:46;17.90;;;7.63;;
67456;SDS011;54319;52.038;4.640;2023-04-16T12:19:14;20.25;;;9.07;;
67456;SDS011;54319;52.038;4.640;2023-04-16T12:21:41;19.27;;;10.40;;
67456;SDS011;54319;52.038;4.640;2023-04-16T12:24:11;19.48;;;10.00;;
67456;SDS011;54319;52.038;4.640;2023-04-16T12:26:41;18.05;;;10.40;;
67456;SDS011;54319;52.038;4.640;2023-04-16T12:29:15;17.15;;;10.70;;
67456;SDS011;54319;52.038;4.640;2023-04-16T12:31:43;22.88;;;11.13;;
67456;SDS011;54319;52.038;4.640;2023-04-16T12:34:10;20.95;;;10.73;;
67456;SDS011;54319;52.038;4.640;2023-04-16T12:36:39;21.90;;;10.80;;
67456;SDS011;54319;52.038;4.640;2023-04-16T12:39:05;25.45;;;12.15;;
67456;SDS011;54319;52.038;4.640;2023-04-16T12:41:35;25.38;;;12.38;;
67456;SDS011;54319;52.038;4.640;2023-04-16T12:44:05;24.83;;;12.00;;
67456;SDS011;54319;52.038;4.640;2023-04-16T12:46:33;22.08;;;11.30;;
67456;SDS011;54319;52.038;4.640;2023-04-16T12:49:01;17.08;;;10.48;;
67456;SDS011;54319;52.038;4.640;2023-04-16T12:51:28;18.27;;;11.25;;
67456;SDS011;54319;52.038;4.640;2023-04-16T12:53:54;19.20;;;9.93;;
67456;SDS011;54319;52.038;4.640;2023-04-16T12:56:21;16.23;;;9.47;;
67456;SDS011;54319;52.038;4.640;2023-04-16T12:58:48;18.50;;;9.43;;
67456;SDS011;54319;52.038;4.640;2023-04-16T13:01:17;21.33;;;9.00;;
67456;SDS011;54319;52.038;4.640;2023-04-16T13:03:44;17.40;;;9.45;;
67456;SDS011;54319;52.038;4.640;2023-04-16T13:06:11;24.67;;;10.23;;
67456;SDS011;54319;52.038;4.640;2023-04-16T13:08:38;22.42;;;11.18;;
67456;SDS011;54319;52.038;4.640;2023-04-16T13:11:05;20.83;;;10.88;;
67456;SDS011;54319;52.038;4.640;2023-04-16T13:13:33;18.15;;;10.55;;
67456;SDS011;54319;52.038;4.640;2023-04-16T13:15:59;20.33;;;10.52;;
67456;SDS011;54319;52.038;4.640;2023-04-16T13:18:29;20.92;;;11.32;;
67456;SDS011;54319;52.038;4.640;2023-04-16T13:20:55;25.42;;;10.63;;
67456;SDS011;54319;52.038;4.640;2023-04-16T13:23:23;23.35;;;11.18;;
67456;SDS011;54319;52.038;4.640;2023-04-16T13:25:49;23.60;;;10.77;;
67456;SDS011;54319;52.038;4.640;2023-04-16T13:28:16;24.53;;;11.23;;
67456;SDS011;54319;52.038;4.640;2023-04-16T13:30:42;21.65;;;10.15;;
67456;SDS011;54319;52.038;4.640;2023-04-16T13:33:10;25.67;;;11.13;;
67456;SDS011;54319;52.038;4.640;2023-04-16T13:35:38;30.57;;;11.43;;
67456;SDS011;54319;52.038;4.640;2023-04-16T13:38:05;26.17;;;10.48;;
67456;SDS011;54319;52.038;4.640;2023-04-16T13:40:32;20.73;;;10.70;;
67456;SDS011;54319;52.038;4.640;2023-04-16T13:42:58;25.33;;;11.57;;
67456;SDS011;54319;52.038;4.640;2023-04-16T13:45:25;23.83;;;11.38;;
67456;SDS011;54319;52.038;4.640;2023-04-16T13:47:52;27.15;;;10.77;;
67456;SDS011;54319;52.038;4.640;2023-04-16T13:50:19;26.43;;;10.50;;
67456;SDS011;54319;52.038;4.640;2023-04-16T13:52:47;21.77;;;9.82;;
67456;SDS011;54319;52.038;4.640;2023-04-16T13:55:14;21.92;;;10.10;;
67456;SDS011;54319;52.038;4.640;2023-04-16T13:57:43;24.75;;;10.63;;
67456;SDS011;54319;52.038;4.640;2023-04-16T14:00:10;23.02;;;11.02;;
67456;SDS011;54319;52.038;4.640;2023-04-16T14:02:38;20.48;;;10.23;;
67456;SDS011;54319;52.038;4.640;2023-04-16T14:05:05;15.38;;;8.85;;
67456;SDS011;54319;52.038;4.640;2023-04-16T14:07:32;16.63;;;8.20;;
67456;SDS011;54319;52.038;4.640;2023-04-16T14:10:00;18.40;;;8.13;;
67456;SDS011;54319;52.038;4.640;2023-04-16T14:12:26;18.30;;;8.02;;
67456;SDS011;54319;52.038;4.640;2023-04-16T14:14:55;17.20;;;8.27;;
67456;SDS011;54319;52.038;4.640;2023-04-16T14:17:22;23.13;;;8.15;;
67456;SDS011;54319;52.038;4.640;2023-04-16T14:19:49;17.00;;;7.80;;
67456;SDS011;54319;52.038;4.640;2023-04-16T14:22:15;17.87;;;7.63;;
67456;SDS011;54319;52.038;4.640;2023-04-16T14:24:42;16.83;;;7.90;;
67456;SDS011;54319;52.038;4.640;2023-04-16T14:27:10;19.40;;;7.27;;
67456;SDS011;54319;52.038;4.640;2023-04-16T14:29:37;18.88;;;7.80;;
67456;SDS011;54319;52.038;4.640;2023-04-16T14:32:05;18.77;;;7.20;;
67456;SDS011;54319;52.038;4.640;2023-04-16T14:34:32;22.45;;;9.52;;
67456;SDS011;54319;52.038;4.640;2023-04-16T14:36:58;18.03;;;7.77;;
67456;SDS011;54319;52.038;4.640;2023-04-16T14:39:25;17.40;;;8.07;;
67456;SDS011;54319;52.038;4.640;2023-04-16T14:41:52;19.98;;;8.32;;
67456;SDS011;54319;52.038;4.640;2023-04-16T14:44:20;15.80;;;7.28;;
67456;SDS011;54319;52.038;4.640;2023-04-16T14:46:46;17.52;;;7.72;;
67456;SDS011;54319;52.038;4.640;2023-04-16T14:49:13;13.37;;;7.17;;
67456;SDS011;54319;52.038;4.640;2023-04-16T14:51:40;15.13;;;7.03;;
67456;SDS011;54319;52.038;4.640;2023-04-16T14:54:07;15.85;;;7.07;;
67456;SDS011;54319;52.038;4.640;2023-04-16T14:56:34;17.55;;;8.20;;